sensor_id;sensor_type;location;lat;lon;timestamp;P1;durP1;ratioP1;P2;durP2;ratioP2
15181;SDS011;7692;50.602;8.692;2024-01-30T00:01:47;2.90;;;2.90;;
15181;SDS011;7692;50.602;8.692;2024-01-30T00:04:15;2.90;;;2.90;;
15181;SDS011;7692;50.602;8.692;2024-01-30T00:06:44;3.00;;;3.00;;
15181;SDS011;7692;50.602;8.692;2024-01-30T00:09:14;2.80;;;2.80;;
15181;SDS011;7692;50.602;8.692;2024-01-30T00:11:42;2.70;;;2.70;;
15181;SDS011;7692;50.602;8.692;2024-01-30T00:14:11;2.80;;;2.80;;
15181;SDS011;7692;50.602;8.692;2024-01-30T00:16:40;2.90;;;2.90;;
15181;SDS011;7692;50.602;8.692;2024-01-30T00:19:08;2.60;;;2.60;;
15181;SDS011;7692;50.602;8.692;2024-01-30T00:21:37;2.90;;;2.90;;
15181;SDS011;7692;50.602;8.692;2024-01-30T00:24:05;2.80;;;2.80;;
15181;SDS011;7692;50.602;8.692;2024-01-30T00:26:35;3.00;;;3.00;;
15181;SDS011;7692;50.602;8.692;2024-01-30T00:29:03;2.77;;;2.77;;
15181;SDS011;7692;50.602;8.692;2024-01-30T00:31:31;2.80;;;2.80;;
15181;SDS011;7692;50.602;8.692;2024-01-30T00:34:03;3.00;;;3.00;;
15181;SDS011;7692;50.602;8.692;2024-01-30T00:36:32;2.90;;;2.90;;
15181;SDS011;7692;50.602;8.692;2024-01-30T00:39:00;3.00;;;3.00;;
15181;SDS011;7692;50.602;8.692;2024-01-30T00:41:32;2.90;;;2.90;;
15181;SDS011;7692;50.602;8.692;2024-01-30T00:44:02;2.90;;;2.90;;
15181;SDS011;7692;50.602;8.692;2024-01-30T00:46:30;3.27;;;3.17;;
15181;SDS011;7692;50.602;8.692;2024-01-30T00:48:59;2.87;;;2.87;;
15181;SDS011;7692;50.602;8.692;2024-01-30T00:51:27;3.30;;;3.20;;
15181;SDS011;7692;50.602;8.692;2024-01-30T00:53:56;2.90;;;2.90;;
15181;SDS011;7692;50.602;8.692;2024-01-30T00:56:24;2.90;;;2.90;;
15181;SDS011;7692;50.602;8.692;2024-01-30T00:58:53;3.00;;;3.00;;
15181;SDS011;7692;50.602;8.692;2024-01-30T01:01:23;2.80;;;2.80;;
15181;SDS011;7692;50.602;8.692;2024-01-30T01:03:51;2.90;;;2.90;;
15181;SDS011;7692;50.602;8.692;2024-01-30T01:06:20;2.80;;;2.80;;
15181;SDS011;7692;50.602;8.692;2024-01-30T01:08:48;2.80;;;2.80;;
15181;SDS011;7692;50.602;8.692;2024-01-30T01:11:16;3.00;;;3.00;;
15181;SDS011;7692;50.602;8.692;2024-01-30T01:13:45;3.00;;;3.00;;
15181;SDS011;7692;50.602;8.692;2024-01-30T01:16:13;2.80;;;2.80;;
15181;SDS011;7692;50.602;8.692;2024-01-30T01:18:43;3.00;;;3.00;;
15181;SDS011;7692;50.602;8.692;2024-01-30T01:21:11;3.00;;;3.00;;
15181;SDS011;7692;50.602;8.692;2024-01-30T01:23:40;2.90;;;2.90;;
15181;SDS011;7692;50.602;8.692;2024-01-30T01:26:08;3.10;;;3.10;;
15181;SDS011;7692;50.602;8.692;2024-01-30T01:28:37;3.00;;;3.00;;
15181;SDS011;7692;50.602;8.692;2024-01-30T01:31:07;2.90;;;2.90;;
15181;SDS011;7692;50.602;8.692;2024-01-30T01:33:35;2.90;;;2.90;;
15181;SDS011;7692;50.602;8.692;2024-01-30T01:36:05;2.80;;;2.80;;
15181;SDS011;7692;50.602;8.692;2024-01-30T01:38:34;3.00;;;3.00;;
15181;SDS011;7692;50.602;8.692;2024-01-30T01:41:02;3.00;;;3.00;;
15181;SDS011;7692;50.602;8.692;2024-01-30T01:43:30;2.90;;;2.90;;
15181;SDS011;7692;50.602;8.692;2024-01-30T01:45:59;2.90;;;2.90;;
15181;SDS011;7692;50.602;8.692;2024-01-30T01:48:27;3.00;;;3.00;;
15181;SDS011;7692;50.602;8.692;2024-01-30T01:50:56;2.80;;;2.80;;
15181;SDS011;7692;50.602;8.692;2024-01-30T01:53:27;3.13;;;3.10;;
15181;SDS011;7692;50.602;8.692;2024-01-30T01:55:56;2.80;;;2.80;;
15181;SDS011;7692;50.602;8.692;2024-01-30T01:58:24;2.90;;;2.90;;
15181;SDS011;7692;50.602;8.692;2024-01-30T02:00:55;2.70;;;2.70;;
15181;SDS011;7692;50.602;8.692;2024-01-30T02:03:24;2.80;;;2.80;;
15181;SDS011;7692;50.602;8.692;2024-01-30T02:05:52;2.60;;;2.60;;
15181;SDS011;7692;50.602;8.692;2024-01-30T02:08:22;2.63;;;2.63;;
15181;SDS011;7692;50.602;8.692;2024-01-30T02:10:52;2.90;;;2.90;;
15181;SDS011;7692;50.602;8.692;2024-01-30T02:13:20;2.70;;;2.70;;
15181;SDS011;7692;50.602;8.692;2024-01-30T02:15:49;2.80;;;2.80;;
15181;SDS011;7692;50.602;8.692;2024-01-30T02:18:19;2.90;;;2.90;;
15181;SDS011;7692;50.602;8.692;2024-01-30T02:20:47;2.60;;;2.60;;
15181;SDS011;7692;50.602;8.692;2024-01-30T02:23:17;3.10;;;3.10;;
15181;SDS011;7692;50.602;8.692;2024-01-30T02:28:36;2.80;;;2.80;;
15181;SDS011;7692;50.602;8.692;2024-01-30T02:31:04;2.80;;;2.80;;
15181;SDS011;7692;50.602;8.692;2024-01-30T02:33:33;3.07;;;3.07;;
15181;SDS011;7692;50.602;8.692;2024-01-30T02:36:01;3.40;;;3.30;;
15181;SDS011;7692;50.602;8.692;2024-01-30T02:38:31;2.90;;;2.90;;
15181;SDS011;7692;50.602;8.692;2024-01-30T02:40:59;2.93;;;2.93;;
15181;SDS011;7692;50.602;8.692;2024-01-30T02:43:27;2.97;;;2.97;;
15181;SDS011;7692;50.602;8.692;2024-01-30T02:45:56;3.27;;;3.17;;
15181;SDS011;7692;50.602;8.692;2024-01-30T02:48:26;3.20;;;3.10;;
15181;SDS011;7692;50.602;8.692;2024-01-30T02:50:54;3.00;;;3.00;;
15181;SDS011;7692;50.602;8.692;2024-01-30T02:53:24;2.90;;;2.90;;
15181;SDS011;7692;50.602;8.692;2024-01-30T02:55:53;3.30;;;3.20;;
15181;SDS011;7692;50.602;8.692;2024-01-30T02:58:22;3.33;;;3.23;;
15181;SDS011;7692;50.602;8.692;2024-01-30T03:00:50;3.00;;;3.00;;
15181;SDS011;7692;50.602;8.692;2024-01-30T03:03:19;3.10;;;3.10;;
15181;SDS011;7692;50.602;8.692;2024-01-30T03:05:47;2.87;;;2.87;;
15181;SDS011;7692;50.602;8.692;2024-01-30T03:08:16;3.20;;;3.10;;
15181;SDS011;7692;50.602;8.692;2024-01-30T03:10:44;2.90;;;2.90;;
15181;SDS011;7692;50.602;8.692;2024-01-30T03:13:14;2.90;;;2.90;;
15181;SDS011;7692;50.602;8.692;2024-01-30T03:15:42;2.93;;;2.93;;
15181;SDS011;7692;50.602;8.692;2024-01-30T03:18:11;3.00;;;3.00;;
15181;SDS011;7692;50.602;8.692;2024-01-30T03:20:39;3.30;;;3.20;;
15181;SDS011;7692;50.602;8.692;2024-01-30T03:23:08;2.90;;;2.90;;
15181;SDS011;7692;50.602;8.692;2024-01-30T03:25:36;3.30;;;3.20;;
15181;SDS011;7692;50.602;8.692;2024-01-30T03:28:04;3.30;;;3.20;;
15181;SDS011;7692;50.602;8.692;2024-01-30T03:30:35;3.40;;;3.30;;
15181;SDS011;7692;50.602;8.692;2024-01-30T03:33:04;3.30;;;3.20;;
15181;SDS011;7692;50.602;8.692;2024-01-30T03:35:32;3.50;;;3.40;;
15181;SDS011;7692;50.602;8.692;2024-01-30T03:38:01;2.90;;;2.90;;
15181;SDS011;7692;50.602;8.692;2024-01-30T03:40:29;2.80;;;2.80;;
15181;SDS011;7692;50.602;8.692;2024-01-30T03:42:57;2.70;;;2.70;;
15181;SDS011;7692;50.602;8.692;2024-01-30T03:45:26;2.90;;;2.90;;
15181;SDS011;7692;50.602;8.692;2024-01-30T03:47:55;3.23;;;3.17;;
15181;SDS011;7692;50.602;8.692;2024-01-30T03:50:24;2.90;;;2.90;;
15181;SDS011;7692;50.602;8.692;2024-01-30T03:52:52;2.70;;;2.70;;
15181;SDS011;7692;50.602;8.692;2024-01-30T03:55:21;3.10;;;3.10;;
15181;SDS011;7692;50.602;8.692;2024-01-30T03:57:49;2.80;;;2.80;;
15181;SDS011;7692;50.602;8.692;2024-01-30T04:00:17;2.90;;;2.90;;
15181;SDS011;7692;50.602;8.692;2024-01-30T04:02:46;3.30;;;3.20;;
15181;SDS011;7692;50.602;8.692;2024-01-30T04:05:15;3.20;;;3.10;;
15181;SDS011;7692;50.602;8.692;2024-01-30T04:07:44;3.30;;;3.20;;
15181;SDS011;7692;50.602;8.692;2024-01-30T04:10:12;3.27;;;3.17;;
15181;SDS011;7692;50.602;8.692;2024-01-30T04:12:40;3.47;;;3.37;;
15181;SDS011;7692;50.602;8.692;2024-01-30T04:15:09;3.00;;;3.00;;
15181;SDS011;7692;50.602;8.692;2024-01-30T04:17:37;3.30;;;3.20;;
15181;SDS011;7692;50.602;8.692;2024-01-30T04:20:06;3.43;;;3.33;;
15181;SDS011;7692;50.602;8.692;2024-01-30T04:22:36;3.00;;;3.00;;
15181;SDS011;7692;50.602;8.692;2024-01-30T04:25:04;2.70;;;2.70;;
15181;SDS011;7692;50.602;8.692;2024-01-30T04:27:33;2.97;;;2.97;;
15181;SDS011;7692;50.602;8.692;2024-01-30T04:30:01;2.90;;;2.90;;
15181;SDS011;7692;50.602;8.692;2024-01-30T04:32:31;3.30;;;3.20;;
15181;SDS011;7692;50.602;8.692;2024-01-30T04:35:00;3.00;;;3.00;;
15181;SDS011;7692;50.602;8.692;2024-01-30T04:37:33;3.27;;;3.17;;
15181;SDS011;7692;50.602;8.692;2024-01-30T04:40:03;3.00;;;3.00;;
15181;SDS011;7692;50.602;8.692;2024-01-30T04:42:31;3.43;;;3.33;;
15181;SDS011;7692;50.602;8.692;2024-01-30T04:45:00;3.20;;;3.10;;
15181;SDS011;7692;50.602;8.692;2024-01-30T04:47:28;2.80;;;2.80;;
15181;SDS011;7692;50.602;8.692;2024-01-30T04:49:57;3.83;;;3.73;;
15181;SDS011;7692;50.602;8.692;2024-01-30T04:52:25;3.20;;;3.10;;
15181;SDS011;7692;50.602;8.692;2024-01-30T04:54:53;3.20;;;3.10;;
15181;SDS011;7692;50.602;8.692;2024-01-30T04:57:23;3.20;;;3.10;;
15181;SDS011;7692;50.602;8.692;2024-01-30T04:59:52;2.80;;;2.80;;
15181;SDS011;7692;50.602;8.692;2024-01-30T05:02:20;3.60;;;3.50;;
15181;SDS011;7692;50.602;8.692;2024-01-30T05:04:48;3.30;;;3.20;;
15181;SDS011;7692;50.602;8.692;2024-01-30T05:07:17;3.00;;;3.00;;
15181;SDS011;7692;50.602;8.692;2024-01-30T05:09:45;3.40;;;3.30;;
15181;SDS011;7692;50.602;8.692;2024-01-30T05:12:14;3.00;;;3.00;;
15181;SDS011;7692;50.602;8.692;2024-01-30T05:14:43;2.83;;;2.83;;
15181;SDS011;7692;50.602;8.692;2024-01-30T05:17:12;3.30;;;3.20;;
15181;SDS011;7692;50.602;8.692;2024-01-30T05:19:40;2.70;;;2.70;;
15181;SDS011;7692;50.602;8.692;2024-01-30T05:22:09;3.13;;;3.10;;
15181;SDS011;7692;50.602;8.692;2024-01-30T05:24:41;3.40;;;3.30;;
15181;SDS011;7692;50.602;8.692;2024-01-30T05:27:10;2.90;;;2.90;;
15181;SDS011;7692;50.602;8.692;2024-01-30T05:29:39;3.17;;;3.10;;
15181;SDS011;7692;50.602;8.692;2024-01-30T05:32:09;2.90;;;2.90;;
15181;SDS011;7692;50.602;8.692;2024-01-30T05:34:38;3.30;;;3.20;;
15181;SDS011;7692;50.602;8.692;2024-01-30T05:37:06;3.00;;;3.00;;
15181;SDS011;7692;50.602;8.692;2024-01-30T05:39:35;3.40;;;3.30;;
15181;SDS011;7692;50.602;8.692;2024-01-30T05:42:03;3.17;;;3.13;;
15181;SDS011;7692;50.602;8.692;2024-01-30T05:44:32;3.30;;;3.20;;
15181;SDS011;7692;50.602;8.692;2024-01-30T05:47:00;3.00;;;3.00;;
15181;SDS011;7692;50.602;8.692;2024-01-30T05:49:30;3.20;;;3.10;;
15181;SDS011;7692;50.602;8.692;2024-01-30T05:51:59;3.30;;;3.20;;
15181;SDS011;7692;50.602;8.692;2024-01-30T05:54:27;3.30;;;3.20;;
15181;SDS011;7692;50.602;8.692;2024-01-30T05:56:56;3.20;;;3.10;;
15181;SDS011;7692;50.602;8.692;2024-01-30T05:59:24;3.20;;;3.10;;
15181;SDS011;7692;50.602;8.692;2024-01-30T06:01:53;2.73;;;2.73;;
15181;SDS011;7692;50.602;8.692;2024-01-30T06:04:21;3.50;;;3.40;;
15181;SDS011;7692;50.602;8.692;2024-01-30T06:06:51;2.70;;;2.70;;
15181;SDS011;7692;50.602;8.692;2024-01-30T06:09:20;3.40;;;3.30;;
15181;SDS011;7692;50.602;8.692;2024-01-30T06:11:48;3.40;;;3.30;;
15181;SDS011;7692;50.602;8.692;2024-01-30T06:14:17;3.30;;;3.20;;
15181;SDS011;7692;50.602;8.692;2024-01-30T06:16:45;3.30;;;3.20;;
15181;SDS011;7692;50.602;8.692;2024-01-30T06:19:13;3.13;;;3.10;;
15181;SDS011;7692;50.602;8.692;2024-01-30T06:21:41;2.93;;;2.93;;
15181;SDS011;7692;50.602;8.692;2024-01-30T06:24:11;3.20;;;3.10;;
15181;SDS011;7692;50.602;8.692;2024-01-30T06:26:40;3.00;;;3.00;;
15181;SDS011;7692;50.602;8.692;2024-01-30T06:29:08;3.10;;;3.10;;
15181;SDS011;7692;50.602;8.692;2024-01-30T06:31:39;3.50;;;3.40;;
15181;SDS011;7692;50.602;8.692;2024-01-30T06:34:09;3.30;;;3.20;;
15181;SDS011;7692;50.602;8.692;2024-01-30T06:36:38;3.30;;;3.20;;
15181;SDS011;7692;50.602;8.692;2024-01-30T06:39:06;3.17;;;3.10;;
15181;SDS011;7692;50.602;8.692;2024-01-30T06:41:36;3.43;;;3.33;;
15181;SDS011;7692;50.602;8.692;2024-01-30T06:44:04;3.27;;;3.17;;
15181;SDS011;7692;50.602;8.692;2024-01-30T06:46:34;3.10;;;3.10;;
15181;SDS011;7692;50.602;8.692;2024-01-30T06:49:03;2.80;;;2.80;;
15181;SDS011;7692;50.602;8.692;2024-01-30T06:51:31;3.67;;;3.57;;
15181;SDS011;7692;50.602;8.692;2024-01-30T06:54:00;3.07;;;3.07;;
15181;SDS011;7692;50.602;8.692;2024-01-30T06:56:28;3.00;;;3.00;;
15181;SDS011;7692;50.602;8.692;2024-01-30T06:58:58;3.00;;;3.00;;
15181;SDS011;7692;50.602;8.692;2024-01-30T07:01:27;3.20;;;3.10;;
15181;SDS011;7692;50.602;8.692;2024-01-30T07:03:57;3.40;;;3.30;;
15181;SDS011;7692;50.602;8.692;2024-01-30T07:06:25;3.37;;;3.27;;
15181;SDS011;7692;50.602;8.692;2024-01-30T07:08:54;3.20;;;3.10;;
15181;SDS011;7692;50.602;8.692;2024-01-30T07:11:22;3.53;;;3.43;;
15181;SDS011;7692;50.602;8.692;2024-01-30T07:13:51;3.23;;;3.13;;
15181;SDS011;7692;50.602;8.692;2024-01-30T07:16:21;3.37;;;3.27;;
15181;SDS011;7692;50.602;8.692;2024-01-30T07:18:49;3.00;;;3.00;;
15181;SDS011;7692;50.602;8.692;2024-01-30T07:21:18;3.30;;;3.20;;
15181;SDS011;7692;50.602;8.692;2024-01-30T07:23:48;3.00;;;3.00;;
15181;SDS011;7692;50.602;8.692;2024-01-30T07:26:16;3.00;;;3.00;;
15181;SDS011;7692;50.602;8.692;2024-01-30T07:28:44;3.30;;;3.20;;
15181;SDS011;7692;50.602;8.692;2024-01-30T07:31:13;3.30;;;3.20;;
15181;SDS011;7692;50.602;8.692;2024-01-30T07:33:43;3.50;;;3.40;;
15181;SDS011;7692;50.602;8.692;2024-01-30T07:36:12;3.00;;;3.00;;
15181;SDS011;7692;50.602;8.692;2024-01-30T07:38:40;3.47;;;3.37;;
15181;SDS011;7692;50.602;8.692;2024-01-30T07:41:08;3.40;;;3.30;;
15181;SDS011;7692;50.602;8.692;2024-01-30T07:43:37;3.70;;;3.60;;
15181;SDS011;7692;50.602;8.692;2024-01-30T07:46:06;3.63;;;3.53;;
15181;SDS011;7692;50.602;8.692;2024-01-30T07:48:34;3.50;;;3.40;;
15181;SDS011;7692;50.602;8.692;2024-01-30T07:51:04;3.00;;;3.00;;
15181;SDS011;7692;50.602;8.692;2024-01-30T07:53:33;3.40;;;3.30;;
15181;SDS011;7692;50.602;8.692;2024-01-30T07:56:01;3.20;;;3.10;;
15181;SDS011;7692;50.602;8.692;2024-01-30T07:58:29;2.80;;;2.80;;
15181;SDS011;7692;50.602;8.692;2024-01-30T08:00:58;3.50;;;3.40;;
15181;SDS011;7692;50.602;8.692;2024-01-30T08:03:27;3.30;;;3.20;;
15181;SDS011;7692;50.602;8.692;2024-01-30T08:05:55;3.17;;;3.10;;
15181;SDS011;7692;50.602;8.692;2024-01-30T08:08:25;2.93;;;2.93;;
15181;SDS011;7692;50.602;8.692;2024-01-30T08:10:54;3.00;;;3.00;;
15181;SDS011;7692;50.602;8.692;2024-01-30T08:13:22;3.30;;;3.20;;
15181;SDS011;7692;50.602;8.692;2024-01-30T08:15:51;3.00;;;3.00;;
15181;SDS011;7692;50.602;8.692;2024-01-30T08:18:19;2.90;;;2.90;;
15181;SDS011;7692;50.602;8.692;2024-01-30T08:20:48;3.33;;;3.23;;
15181;SDS011;7692;50.602;8.692;2024-01-30T08:23:16;3.10;;;3.10;;
15181;SDS011;7692;50.602;8.692;2024-01-30T08:25:46;2.70;;;2.70;;
15181;SDS011;7692;50.602;8.692;2024-01-30T08:28:14;2.80;;;2.80;;
15181;SDS011;7692;50.602;8.692;2024-01-30T08:30:46;2.70;;;2.70;;
15181;SDS011;7692;50.602;8.692;2024-01-30T08:33:14;2.80;;;2.80;;
15181;SDS011;7692;50.602;8.692;2024-01-30T08:35:43;2.80;;;2.80;;
15181;SDS011;7692;50.602;8.692;2024-01-30T08:38:11;3.10;;;3.10;;
15181;SDS011;7692;50.602;8.692;2024-01-30T08:40:40;3.13;;;3.10;;
15181;SDS011;7692;50.602;8.692;2024-01-30T08:43:10;3.30;;;3.20;;
15181;SDS011;7692;50.602;8.692;2024-01-30T08:45:39;3.30;;;3.20;;
15181;SDS011;7692;50.602;8.692;2024-01-30T08:48:08;2.70;;;2.70;;
15181;SDS011;7692;50.602;8.692;2024-01-30T08:50:39;2.60;;;2.60;;
15181;SDS011;7692;50.602;8.692;2024-01-30T08:53:08;2.90;;;2.90;;
15181;SDS011;7692;50.602;8.692;2024-01-30T08:55:38;2.90;;;2.90;;
15181;SDS011;7692;50.602;8.692;2024-01-30T08:58:07;2.97;;;2.97;;
15181;SDS011;7692;50.602;8.692;2024-01-30T09:00:36;2.50;;;2.50;;
15181;SDS011;7692;50.602;8.692;2024-01-30T09:03:04;2.60;;;2.60;;
15181;SDS011;7692;50.602;8.692;2024-01-30T09:05:32;2.60;;;2.60;;
15181;SDS011;7692;50.602;8.692;2024-01-30T09:08:00;2.80;;;2.80;;
15181;SDS011;7692;50.602;8.692;2024-01-30T09:10:29;2.60;;;2.60;;
15181;SDS011;7692;50.602;8.692;2024-01-30T09:12:56;2.63;;;2.63;;
15181;SDS011;7692;50.602;8.692;2024-01-30T09:15:24;2.70;;;2.70;;
15181;SDS011;7692;50.602;8.692;2024-01-30T09:17:54;2.70;;;2.70;;
15181;SDS011;7692;50.602;8.692;2024-01-30T09:20:22;2.60;;;2.60;;
15181;SDS011;7692;50.602;8.692;2024-01-30T09:22:50;2.60;;;2.60;;
15181;SDS011;7692;50.602;8.692;2024-01-30T09:25:18;2.50;;;2.50;;
15181;SDS011;7692;50.602;8.692;2024-01-30T09:27:46;2.60;;;2.60;;
15181;SDS011;7692;50.602;8.692;2024-01-30T09:30:15;2.53;;;2.53;;
15181;SDS011;7692;50.602;8.692;2024-01-30T09:32:43;2.57;;;2.57;;
15181;SDS011;7692;50.602;8.692;2024-01-30T09:35:13;2.40;;;2.40;;
15181;SDS011;7692;50.602;8.692;2024-01-30T09:37:41;2.70;;;2.70;;
15181;SDS011;7692;50.602;8.692;2024-01-30T09:40:09;2.40;;;2.40;;
15181;SDS011;7692;50.602;8.692;2024-01-30T09:42:37;2.70;;;2.70;;
15181;SDS011;7692;50.602;8.692;2024-01-30T09:45:06;2.50;;;2.50;;
15181;SDS011;7692;50.602;8.692;2024-01-30T09:47:39;2.60;;;2.60;;
15181;SDS011;7692;50.602;8.692;2024-01-30T09:50:09;2.40;;;2.40;;
15181;SDS011;7692;50.602;8.692;2024-01-30T09:52:39;2.60;;;2.60;;
15181;SDS011;7692;50.602;8.692;2024-01-30T09:55:08;2.40;;;2.40;;
15181;SDS011;7692;50.602;8.692;2024-01-30T09:57:36;2.20;;;2.20;;
15181;SDS011;7692;50.602;8.692;2024-01-30T10:00:06;2.30;;;2.30;;
15181;SDS011;7692;50.602;8.692;2024-01-30T10:02:38;2.40;;;2.40;;
15181;SDS011;7692;50.602;8.692;2024-01-30T10:05:08;2.30;;;2.30;;
15181;SDS011;7692;50.602;8.692;2024-01-30T10:07:36;2.27;;;2.27;;
15181;SDS011;7692;50.602;8.692;2024-01-30T10:10:06;2.30;;;2.30;;
15181;SDS011;7692;50.602;8.692;2024-01-30T10:12:34;2.23;;;2.23;;
15181;SDS011;7692;50.602;8.692;2024-01-30T10:15:03;2.20;;;2.20;;
15181;SDS011;7692;50.602;8.692;2024-01-30T10:17:34;2.40;;;2.40;;
15181;SDS011;7692;50.602;8.692;2024-01-30T10:20:06;2.30;;;2.30;;
15181;SDS011;7692;50.602;8.692;2024-01-30T10:22:35;2.20;;;2.20;;
15181;SDS011;7692;50.602;8.692;2024-01-30T10:25:03;2.20;;;2.20;;
15181;SDS011;7692;50.602;8.692;2024-01-30T10:27:36;2.30;;;2.30;;
15181;SDS011;7692;50.602;8.692;2024-01-30T10:30:04;2.20;;;2.20;;
15181;SDS011;7692;50.602;8.692;2024-01-30T10:32:34;2.30;;;2.30;;
15181;SDS011;7692;50.602;8.692;2024-01-30T10:35:02;2.40;;;2.40;;
15181;SDS011;7692;50.602;8.692;2024-01-30T10:37:31;2.30;;;2.30;;
15181;SDS011;7692;50.602;8.692;2024-01-30T10:40:02;2.20;;;2.20;;
15181;SDS011;7692;50.602;8.692;2024-01-30T10:42:32;2.20;;;2.20;;
15181;SDS011;7692;50.602;8.692;2024-01-30T10:45:02;2.30;;;2.30;;
15181;SDS011;7692;50.602;8.692;2024-01-30T10:47:35;2.27;;;2.27;;
15181;SDS011;7692;50.602;8.692;2024-01-30T10:50:05;2.20;;;2.20;;
15181;SDS011;7692;50.602;8.692;2024-01-30T10:52:35;2.20;;;2.20;;
15181;SDS011;7692;50.602;8.692;2024-01-30T10:55:04;2.10;;;2.10;;
15181;SDS011;7692;50.602;8.692;2024-01-30T10:57:34;2.10;;;2.10;;
15181;SDS011;7692;50.602;8.692;2024-01-30T11:00:04;2.10;;;2.10;;
15181;SDS011;7692;50.602;8.692;2024-01-30T11:02:37;2.10;;;2.10;;
15181;SDS011;7692;50.602;8.692;2024-01-30T11:05:07;2.10;;;2.10;;
15181;SDS011;7692;50.602;8.692;2024-01-30T11:07:35;2.00;;;2.00;;
15181;SDS011;7692;50.602;8.692;2024-01-30T11:10:06;2.00;;;2.00;;
15181;SDS011;7692;50.602;8.692;2024-01-30T11:12:37;2.00;;;2.00;;
15181;SDS011;7692;50.602;8.692;2024-01-30T11:15:09;2.00;;;2.00;;
15181;SDS011;7692;50.602;8.692;2024-01-30T11:17:41;2.00;;;2.00;;
15181;SDS011;7692;50.602;8.692;2024-01-30T11:20:11;2.00;;;2.00;;
15181;SDS011;7692;50.602;8.692;2024-01-30T11:22:41;2.00;;;2.00;;
15181;SDS011;7692;50.602;8.692;2024-01-30T11:25:11;1.80;;;1.80;;
15181;SDS011;7692;50.602;8.692;2024-01-30T11:27:41;2.00;;;2.00;;
15181;SDS011;7692;50.602;8.692;2024-01-30T11:30:11;1.80;;;1.80;;
15181;SDS011;7692;50.602;8.692;2024-01-30T11:32:57;1.87;;;1.87;;
15181;SDS011;7692;50.602;8.692;2024-01-30T11:35:31;1.90;;;1.90;;
15181;SDS011;7692;50.602;8.692;2024-01-30T11:38:01;2.10;;;2.10;;
15181;SDS011;7692;50.602;8.692;2024-01-30T11:40:30;1.50;;;1.50;;
15181;SDS011;7692;50.602;8.692;2024-01-30T11:43:00;1.80;;;1.80;;
15181;SDS011;7692;50.602;8.692;2024-01-30T11:45:32;1.70;;;1.70;;
15181;SDS011;7692;50.602;8.692;2024-01-30T11:48:01;1.50;;;1.50;;
15181;SDS011;7692;50.602;8.692;2024-01-30T11:50:31;1.60;;;1.60;;
15181;SDS011;7692;50.602;8.692;2024-01-30T11:52:59;1.93;;;1.93;;
15181;SDS011;7692;50.602;8.692;2024-01-30T11:55:28;2.10;;;2.10;;
15181;SDS011;7692;50.602;8.692;2024-01-30T11:58:01;1.70;;;1.70;;
15181;SDS011;7692;50.602;8.692;2024-01-30T12:00:32;1.60;;;1.60;;
15181;SDS011;7692;50.602;8.692;2024-01-30T12:03:01;1.60;;;1.60;;
15181;SDS011;7692;50.602;8.692;2024-01-30T12:05:31;1.80;;;1.80;;
15181;SDS011;7692;50.602;8.692;2024-01-30T12:07:59;1.70;;;1.70;;
15181;SDS011;7692;50.602;8.692;2024-01-30T12:10:29;1.80;;;1.80;;
15181;SDS011;7692;50.602;8.692;2024-01-30T12:12:58;2.03;;;2.03;;
15181;SDS011;7692;50.602;8.692;2024-01-30T12:15:27;1.70;;;1.70;;
15181;SDS011;7692;50.602;8.692;2024-01-30T12:18:04;1.80;;;1.80;;
15181;SDS011;7692;50.602;8.692;2024-01-30T12:20:34;2.10;;;2.10;;
15181;SDS011;7692;50.602;8.692;2024-01-30T12:23:03;1.80;;;1.80;;
15181;SDS011;7692;50.602;8.692;2024-01-30T12:25:31;1.80;;;1.80;;
15181;SDS011;7692;50.602;8.692;2024-01-30T12:28:00;1.90;;;1.90;;
15181;SDS011;7692;50.602;8.692;2024-01-30T12:30:28;1.70;;;1.70;;
15181;SDS011;7692;50.602;8.692;2024-01-30T12:32:57;1.90;;;1.90;;
15181;SDS011;7692;50.602;8.692;2024-01-30T12:35:27;1.60;;;1.60;;
15181;SDS011;7692;50.602;8.692;2024-01-30T12:37:59;1.60;;;1.60;;
15181;SDS011;7692;50.602;8.692;2024-01-30T12:40:27;1.70;;;1.70;;
15181;SDS011;7692;50.602;8.692;2024-01-30T12:42:55;1.80;;;1.80;;
15181;SDS011;7692;50.602;8.692;2024-01-30T12:45:24;2.20;;;2.20;;
15181;SDS011;7692;50.602;8.692;2024-01-30T12:47:53;1.80;;;1.80;;
15181;SDS011;7692;50.602;8.692;2024-01-30T12:50:21;1.80;;;1.80;;
15181;SDS011;7692;50.602;8.692;2024-01-30T12:52:51;1.60;;;1.60;;
15181;SDS011;7692;50.602;8.692;2024-01-30T12:55:19;1.70;;;1.70;;
15181;SDS011;7692;50.602;8.692;2024-01-30T12:57:47;1.80;;;1.80;;
15181;SDS011;7692;50.602;8.692;2024-01-30T13:00:15;1.60;;;1.60;;
15181;SDS011;7692;50.602;8.692;2024-01-30T13:02:44;1.70;;;1.70;;
15181;SDS011;7692;50.602;8.692;2024-01-30T13:05:12;1.80;;;1.80;;
15181;SDS011;7692;50.602;8.692;2024-01-30T13:07:41;1.80;;;1.80;;
15181;SDS011;7692;50.602;8.692;2024-01-30T13:10:10;1.80;;;1.80;;
15181;SDS011;7692;50.602;8.692;2024-01-30T13:12:39;1.90;;;1.90;;
15181;SDS011;7692;50.602;8.692;2024-01-30T13:15:07;1.80;;;1.80;;
15181;SDS011;7692;50.602;8.692;2024-01-30T13:17:37;1.70;;;1.70;;
15181;SDS011;7692;50.602;8.692;2024-01-30T13:20:06;2.00;;;2.00;;
15181;SDS011;7692;50.602;8.692;2024-01-30T13:22:38;1.80;;;1.80;;
15181;SDS011;7692;50.602;8.692;2024-01-30T13:25:06;1.80;;;1.80;;
15181;SDS011;7692;50.602;8.692;2024-01-30T13:27:37;1.60;;;1.60;;
15181;SDS011;7692;50.602;8.692;2024-01-30T13:30:06;1.80;;;1.80;;
15181;SDS011;7692;50.602;8.692;2024-01-30T13:32:36;1.80;;;1.80;;
15181;SDS011;7692;50.602;8.692;2024-01-30T13:35:04;1.80;;;1.80;;
15181;SDS011;7692;50.602;8.692;2024-01-30T13:37:33;1.80;;;1.80;;
15181;SDS011;7692;50.602;8.692;2024-01-30T13:40:02;1.80;;;1.80;;
15181;SDS011;7692;50.602;8.692;2024-01-30T13:42:33;1.60;;;1.60;;
15181;SDS011;7692;50.602;8.692;2024-01-30T13:45:03;1.80;;;1.80;;
15181;SDS011;7692;50.602;8.692;2024-01-30T13:47:31;1.60;;;1.60;;
15181;SDS011;7692;50.602;8.692;2024-01-30T13:49:59;1.90;;;1.90;;
15181;SDS011;7692;50.602;8.692;2024-01-30T13:52:26;1.70;;;1.70;;
15181;SDS011;7692;50.602;8.692;2024-01-30T13:55:03;1.80;;;1.80;;
15181;SDS011;7692;50.602;8.692;2024-01-30T13:57:31;1.47;;;1.47;;
15181;SDS011;7692;50.602;8.692;2024-01-30T14:00:03;1.83;;;1.83;;
15181;SDS011;7692;50.602;8.692;2024-01-30T14:02:38;1.60;;;1.60;;
15181;SDS011;7692;50.602;8.692;2024-01-30T14:05:06;1.50;;;1.50;;
15181;SDS011;7692;50.602;8.692;2024-01-30T14:07:35;1.60;;;1.60;;
15181;SDS011;7692;50.602;8.692;2024-01-30T14:10:06;1.70;;;1.70;;
15181;SDS011;7692;50.602;8.692;2024-01-30T14:12:38;1.90;;;1.90;;
15181;SDS011;7692;50.602;8.692;2024-01-30T14:15:08;1.80;;;1.80;;
15181;SDS011;7692;50.602;8.692;2024-01-30T14:17:52;1.70;;;1.70;;
15181;SDS011;7692;50.602;8.692;2024-01-30T14:20:21;1.70;;;1.70;;
15181;SDS011;7692;50.602;8.692;2024-01-30T14:22:49;1.80;;;1.80;;
15181;SDS011;7692;50.602;8.692;2024-01-30T14:25:17;1.60;;;1.60;;
15181;SDS011;7692;50.602;8.692;2024-01-30T14:27:46;1.80;;;1.80;;
15181;SDS011;7692;50.602;8.692;2024-01-30T14:30:15;1.90;;;1.90;;
15181;SDS011;7692;50.602;8.692;2024-01-30T14:32:44;1.80;;;1.80;;
15181;SDS011;7692;50.602;8.692;2024-01-30T14:35:13;1.70;;;1.70;;
15181;SDS011;7692;50.602;8.692;2024-01-30T14:37:41;1.67;;;1.67;;
15181;SDS011;7692;50.602;8.692;2024-01-30T14:40:09;1.80;;;1.80;;
15181;SDS011;7692;50.602;8.692;2024-01-30T14:42:37;1.50;;;1.50;;
15181;SDS011;7692;50.602;8.692;2024-01-30T14:45:06;1.90;;;1.90;;
15181;SDS011;7692;50.602;8.692;2024-01-30T14:47:35;1.70;;;1.70;;
15181;SDS011;7692;50.602;8.692;2024-01-30T14:50:04;1.90;;;1.90;;
15181;SDS011;7692;50.602;8.692;2024-01-30T14:52:35;1.90;;;1.90;;
15181;SDS011;7692;50.602;8.692;2024-01-30T14:55:04;2.00;;;2.00;;
15181;SDS011;7692;50.602;8.692;2024-01-30T14:57:32;1.60;;;1.60;;
15181;SDS011;7692;50.602;8.692;2024-01-30T15:00:02;1.93;;;1.93;;
15181;SDS011;7692;50.602;8.692;2024-01-30T15:02:30;1.90;;;1.90;;
15181;SDS011;7692;50.602;8.692;2024-01-30T15:05:00;1.90;;;1.90;;
15181;SDS011;7692;50.602;8.692;2024-01-30T15:07:29;1.90;;;1.90;;
15181;SDS011;7692;50.602;8.692;2024-01-30T15:10:06;1.70;;;1.70;;
15181;SDS011;7692;50.602;8.692;2024-01-30T15:12:34;1.90;;;1.90;;
15181;SDS011;7692;50.602;8.692;2024-01-30T15:15:02;1.50;;;1.50;;